Time;durP1;ratioP1;P1;durP2;ratioP2;P2;SDS_P1;SDS_P2;PMS_P1;PMS_P2;Temp;Humidity;BMP_temperature;BMP_pressure;BME280_temperature;BME280_humidity;BME280_pressure;Samples;Min_cycle;Max_cycle;Signal;HPM_P1;HPM_P2
2022/05/27 00:02:02;;;;;;;15.40;6.05;;;26.70;50.90;;;;;;4957165;28;20055;-73
2022/05/27 00:04:28;;;;;;;12.65;5.63;;;26.60;50.70;;;;;;4955731;28;20459;-72
2022/05/27 00:06:54;;;;;;;14.68;6.28;;;26.60;51.20;;;;;;4957048;28;20098;-71
2022/05/27 00:09:21;;;;;;;32.80;20.05;;;26.50;51.40;;;;;;4957018;28;20066;-73
2022/05/27 00:11:47;;;;;;;18.85;7.82;;;26.50;51.30;;;;;;4956997;28;20027;-73
2022/05/27 00:14:13;;;;;;;17.20;7.00;;;26.30;51.40;;;;;;4956993;28;20049;-73
2022/05/27 00:16:38;;;;;;;16.67;6.63;;;26.30;51.80;;;;;;4956988;28;20457;-72
2022/05/27 00:19:04;;;;;;;14.48;5.63;;;26.30;51.90;;;;;;4956786;28;20107;-72
2022/05/27 00:21:30;;;;;;;21.13;6.50;;;26.20;52.20;;;;;;4956710;28;20028;-72
2022/05/27 00:23:56;;;;;;;14.02;5.80;;;26.30;52.20;;;;;;4957000;28;20098;-72
2022/05/27 00:26:21;;;;;;;15.63;5.88;;;26.30;52.60;;;;;;4957242;28;20111;-73
2022/05/27 00:28:47;;;;;;;15.85;5.22;;;26.30;52.00;;;;;;4956505;28;20031;-72
2022/05/27 00:31:13;;;;;;;14.50;6.57;;;26.30;52.20;;;;;;4956333;29;20035;-74
2022/05/27 00:33:39;;;;;;;18.17;6.55;;;26.30;52.10;;;;;;4956620;28;20051;-72
2022/05/27 00:36:09;;;;;;;22.52;6.53;;;26.20;52.10;;;;;;4956317;29;20035;-73
2022/05/27 00:38:36;;;;;;;17.00;6.40;;;26.10;52.40;;;;;;4956368;28;20027;-70
2022/05/27 00:41:02;;;;;;;16.20;6.00;;;26.10;52.60;;;;;;4956197;28;20027;-73
2022/05/27 00:43:28;;;;;;;14.55;5.97;;;26.10;52.40;;;;;;4954945;28;20048;-74
2022/05/27 00:46:01;;;;;;;16.67;5.85;;;26.10;52.50;;;;;;4954998;28;20016;-74
2022/05/27 00:48:27;;;;;;;20.23;6.35;;;26.10;52.70;;;;;;4956229;28;20035;-73
2022/05/27 00:50:55;;;;;;;16.88;5.53;;;26.10;52.60;;;;;;4954441;29;20055;-73
2022/05/27 00:53:40;;;;;;;14.70;5.53;;;26.10;52.60;;;;;;4956332;28;20110;-74
2022/05/27 00:56:09;;;;;;;17.17;5.95;;;26.30;52.60;;;;;;4956815;29;20047;-73
2022/05/27 00:58:46;;;;;;;18.17;6.10;;;26.30;52.30;;;;;;4956818;28;20098;-74
2022/05/27 01:01:13;;;;;;;19.13;6.13;;;26.30;52.20;;;;;;4954455;29;20127;-73
2022/05/27 01:03:40;;;;;;;16.55;5.68;;;26.30;52.40;;;;;;4956006;29;20082;-73
2022/05/27 01:06:06;;;;;;;15.98;6.28;;;26.30;52.40;;;;;;4955830;28;20118;-74
2022/05/27 01:08:32;;;;;;;17.40;6.30;;;26.40;52.20;;;;;;4955895;28;20481;-72
2022/05/27 01:11:13;;;;;;;13.32;5.65;;;26.40;52.40;;;;;;4955776;29;20040;-72
2022/05/27 01:14:06;;;;;;;15.65;6.22;;;26.40;51.70;;;;;;4955473;28;20034;-72
2022/05/27 01:16:50;;;;;;;19.38;6.32;;;26.40;52.00;;;;;;4955951;28;20118;-73
2022/05/27 01:22:24;;;;;;;16.98;5.82;;;26.30;52.10;;;;;;4955748;29;20042;-73
2022/05/27 01:25:06;;;;;;;16.05;6.30;;;26.20;52.00;;;;;;4955619;29;20050;-71
2022/05/27 01:28:05;;;;;;;17.63;6.30;;;26.20;52.80;;;;;;4955787;29;20042;-72
2022/05/27 01:30:34;;;;;;;24.50;6.50;;;26.20;52.30;;;;;;4955494;29;20031;-72
2022/05/27 01:33:02;;;;;;;19.48;6.43;;;26.20;52.90;;;;;;4955594;28;20031;-71
2022/05/27 01:36:04;;;;;;;15.75;5.68;;;26.20;52.10;;;;;;4955182;29;20058;-75
2022/05/27 01:38:45;;;;;;;15.80;6.15;;;26.30;52.10;;;;;;4954277;28;20027;-72
2022/05/27 01:41:25;;;;;;;18.85;6.07;;;26.20;52.00;;;;;;4955283;29;20112;-72
2022/05/27 01:44:01;;;;;;;15.38;6.15;;;26.20;52.00;;;;;;4955457;28;20031;-71
2022/05/27 01:46:33;;;;;;;12.30;6.53;;;26.20;52.00;;;;;;4954078;29;20034;-72
2022/05/27 01:49:25;;;;;;;17.30;6.80;;;26.20;52.80;;;;;;4954963;29;20075;-73
2022/05/27 01:52:06;;;;;;;12.95;6.07;;;26.20;52.10;;;;;;4955066;28;20051;-72
2022/05/27 01:55:00;;;;;;;19.92;6.28;;;26.20;52.10;;;;;;4955272;28;20027;-72
2022/05/27 01:57:40;;;;;;;14.65;6.65;;;26.30;52.00;;;;;;4955033;28;20031;-72
2022/05/27 02:00:16;;;;;;;23.25;6.78;;;26.20;51.60;;;;;;4954851;28;20048;-72
2022/05/27 02:02:53;;;;;;;14.80;5.95;;;26.20;51.50;;;;;;4954180;29;20114;-73
2022/05/27 02:05:26;;;;;;;20.70;6.35;;;26.30;52.90;;;;;;4954941;28;20024;-72
2022/05/27 02:08:00;;;;;;;18.83;5.85;;;26.30;52.60;;;;;;4954972;28;20050;-72
2022/05/27 02:10:46;;;;;;;18.65;5.97;;;26.30;52.60;;;;;;4954891;28;20028;-71
2022/05/27 02:13:22;;;;;;;17.00;6.18;;;26.30;51.50;;;;;;4955147;28;20540;-72
2022/05/27 02:15:51;;;;;;;16.30;6.00;;;26.30;52.70;;;;;;4954788;28;20043;-71
2022/05/27 02:18:20;;;;;;;22.85;6.55;;;26.30;52.60;;;;;;4954592;28;20023;-72
2022/05/27 02:20:54;;;;;;;19.83;6.13;;;26.20;52.80;;;;;;4954694;28;20042;-71
2022/05/27 02:23:39;;;;;;;18.50;5.88;;;26.30;52.70;;;;;;4955048;28;20396;-72
2022/05/27 02:26:12;;;;;;;18.88;6.40;;;26.30;51.40;;;;;;4954739;28;20057;-72
2022/05/27 02:28:42;;;;;;;22.15;5.97;;;26.20;52.50;;;;;;4954509;28;20038;-72
2022/05/27 02:31:30;;;;;;;24.67;6.10;;;26.20;52.80;;;;;;4954666;28;20026;-72
2022/05/27 02:36:58;;;;;;;17.88;6.43;;;26.20;52.50;;;;;;4955202;29;20058;-73
2022/05/27 02:39:24;;;;;;;12.43;6.18;;;26.30;52.60;;;;;;4954956;29;20126;-72
2022/05/27 02:41:57;;;;;;;22.17;5.82;;;26.20;52.60;;;;;;4954348;28;20059;-73
2022/05/27 02:44:34;;;;;;;14.60;5.53;;;26.20;52.10;;;;;;4954640;29;20109;-72
2022/05/27 02:47:12;;;;;;;13.68;5.53;;;26.20;52.90;;;;;;4954565;28;20027;-72
2022/05/27 02:50:19;;;;;;;20.17;6.47;;;26.30;52.00;;;;;;4954444;28;20434;-72
2022/05/27 02:52:53;;;;;;;13.93;5.80;;;26.40;52.00;;;;;;4953902;29;20497;-72
2022/05/27 02:55:35;;;;;;;14.10;6.00;;;26.40;52.50;;;;;;4954372;28;20049;-74
2022/05/27 02:58:02;;;;;;;15.07;5.88;;;26.30;52.50;;;;;;4954443;28;20031;-72
2022/05/27 03:00:34;;;;;;;16.98;5.72;;;26.30;52.50;;;;;;4954520;29;20074;-72
2022/05/27 03:03:01;;;;;;;15.35;5.65;;;26.30;52.70;;;;;;4954614;28;20031;-72
2022/05/27 03:05:52;;;;;;;16.58;5.53;;;26.30;52.70;;;;;;4954612;29;20485;-73
2022/05/27 03:08:32;;;;;;;14.07;5.47;;;26.20;52.30;;;;;;4944481;28;20115;-72
2022/05/27 03:11:22;;;;;;;17.83;5.30;;;26.20;53.00;;;;;;4954553;28;20027;-72
2022/05/27 03:13:56;;;;;;;13.70;5.88;;;26.20;52.80;;;;;;4956800;28;20035;-72
2022/05/27 03:16:42;;;;;;;14.93;6.07;;;26.10;52.20;;;;;;4957820;29;20035;-73
2022/05/27 03:19:43;;;;;;;16.55;6.78;;;26.20;52.10;;;;;;4957953;29;20031;-72
2022/05/27 03:22:23;;;;;;;15.38;6.25;;;26.20;52.40;;;;;;4957851;28;20019;-72
2022/05/27 03:25:03;;;;;;;24.15;6.63;;;26.20;52.40;;;;;;4958419;29;20371;-72
2022/05/27 03:27:36;;;;;;;20.80;6.72;;;26.10;53.00;;;;;;4958320;28;20049;-73
2022/05/27 03:30:05;;;;;;;18.00;6.53;;;26.10;53.10;;;;;;4957695;29;20028;-72
2022/05/27 03:33:02;;;;;;;15.35;6.25;;;26.10;53.40;;;;;;4956410;29;20027;-73
2022/05/27 03:35:49;;;;;;;18.52;6.75;;;26.10;53.10;;;;;;4955988;29;20059;-72
2022/05/27 03:38:26;;;;;;;18.88;7.03;;;26.10;53.60;;;;;;4957613;28;20054;-72
2022/05/27 03:41:03;;;;;;;17.25;7.13;;;26.00;53.20;;;;;;4957312;28;20071;-73
2022/05/27 03:43:29;;;;;;;20.00;7.15;;;25.90;53.40;;;;;;4957380;29;20365;-72
2022/05/27 03:46:00;;;;;;;14.20;6.60;;;25.80;53.70;;;;;;4957416;28;20082;-72
2022/05/27 03:48:28;;;;;;;15.48;6.18;;;25.70;53.80;;;;;;4957625;28;20110;-72
2022/05/27 03:50:57;;;;;;;17.42;5.97;;;25.70;53.80;;;;;;4957113;28;20079;-72
2022/05/27 03:54:03;;;;;;;15.75;6.32;;;25.70;53.80;;;;;;4957410;28;20055;-73
2022/05/27 03:56:09;;;;;;;17.00;6.43;;;25.80;53.80;;;;;;4956820;29;20050;-72
2022/05/27 03:58:35;;;;;;;17.65;6.18;;;25.80;53.70;;;;;;4957297;28;20050;-72
2022/05/27 04:01:01;;;;;;;15.82;6.40;;;25.80;53.60;;;;;;4957422;29;20050;-72
2022/05/27 04:03:26;;;;;;;14.85;6.47;;;25.80;53.50;;;;;;4957100;28;20019;-71
2022/05/27 04:05:52;;;;;;;20.10;6.28;;;25.80;53.60;;;;;;4957143;28;20035;-75
2022/05/27 04:08:18;;;;;;;17.88;6.43;;;25.80;53.50;;;;;;4956943;28;20465;-74
2022/05/27 04:10:43;;;;;;;20.33;6.35;;;25.90;53.40;;;;;;4956707;28;20051;-73
2022/05/27 04:13:09;;;;;;;16.98;6.47;;;25.90;53.10;;;;;;4956864;28;20023;-72
2022/05/27 04:15:35;;;;;;;18.23;6.38;;;25.80;52.90;;;;;;4956767;29;20038;-73
2022/05/27 04:18:00;;;;;;;26.35;6.60;;;25.80;53.10;;;;;;4956656;29;20026;-72
2022/05/27 04:20:26;;;;;;;18.48;7.07;;;25.90;53.00;;;;;;4956547;28;20106;-72
2022/05/27 04:22:56;;;;;;;23.50;7.40;;;25.80;52.90;;;;;;4956872;29;20346;-71
2022/05/27 04:25:22;;;;;;;15.50;6.13;;;25.80;53.00;;;;;;4955536;28;20110;-72
2022/05/27 04:27:48;;;;;;;20.48;6.43;;;25.80;52.80;;;;;;4956627;28;20024;-73
2022/05/27 04:30:15;;;;;;;22.67;6.65;;;25.90;52.80;;;;;;4956355;29;20035;-73
2022/05/27 04:32:41;;;;;;;21.70;6.20;;;25.90;52.90;;;;;;4956424;29;20034;-71
2022/05/27 04:35:08;;;;;;;22.33;6.10;;;25.90;52.60;;;;;;4956530;28;20035;-73
2022/05/27 04:37:35;;;;;;;19.33;6.30;;;25.90;52.50;;;;;;4956344;28;20035;-71
2022/05/27 04:40:01;;;;;;;26.67;6.60;;;25.90;52.70;;;;;;4956189;28;20074;-71
2022/05/27 04:42:28;;;;;;;17.10;6.03;;;25.90;52.50;;;;;;4956260;28;20090;-72
2022/05/27 04:44:54;;;;;;;23.50;6.45;;;25.90;52.80;;;;;;4956415;28;20381;-72
2022/05/27 04:47:20;;;;;;;23.35;11.93;;;25.90;52.70;;;;;;4956291;28;20461;-72
2022/05/27 04:49:51;;;;;;;11.45;6.10;;;25.90;52.70;;;;;;4954786;29;20381;-72
2022/05/27 04:52:29;;;;;;;14.18;6.53;;;25.80;52.00;;;;;;4956054;28;20055;-71
2022/05/27 04:54:58;;;;;;;19.08;6.32;;;25.90;53.00;;;;;;4955935;28;20070;-73
2022/05/27 04:57:31;;;;;;;21.70;6.15;;;25.90;53.00;;;;;;4956428;28;20031;-74
2022/05/27 04:59:57;;;;;;;;;;;26.00;52.80;;;;;;4956575;28;20105;-73
2022/05/27 05:02:24;;;;;;;22.45;6.88;;;26.10;53.20;;;;;;4956261;28;19911;-72
2022/05/27 05:04:50;;;;;;;19.38;5.93;;;26.00;52.20;;;;;;4955716;29;20031;-72
2022/05/27 05:07:20;;;;;;;16.08;6.15;;;26.00;52.40;;;;;;4956103;28;20104;-72
2022/05/27 05:09:45;;;;;;;18.33;5.97;;;26.00;52.60;;;;;;4955890;29;20031;-71
2022/05/27 05:12:12;;;;;;;15.85;6.10;;;26.00;52.50;;;;;;4954395;28;20409;-74
2022/05/27 05:14:38;;;;;;;18.20;6.20;;;26.00;52.40;;;;;;4955644;28;20043;-71
2022/05/27 05:17:05;;;;;;;16.20;5.45;;;25.90;52.80;;;;;;4955870;28;20114;-72
2022/05/27 05:19:30;;;;;;;22.00;6.13;;;25.90;52.90;;;;;;4955646;28;20038;-72
2022/05/27 05:21:56;;;;;;;19.88;5.40;;;26.00;52.70;;;;;;4955923;29;20028;-73
2022/05/27 05:24:23;;;;;;;20.85;6.30;;;26.00;52.60;;;;;;4955845;29;20106;-71
2022/05/27 05:26:49;;;;;;;18.80;5.63;;;26.00;52.70;;;;;;4955559;28;20484;-72
2022/05/27 05:29:15;;;;;;;20.20;6.05;;;26.00;52.60;;;;;;4955333;29;20110;-73
2022/05/27 05:31:40;;;;;;;18.70;5.35;;;26.00;52.50;;;;;;4955555;28;20051;-75
2022/05/27 05:34:06;;;;;;;13.15;5.18;;;26.00;52.40;;;;;;4955238;28;20019;-72
2022/05/27 05:36:34;;;;;;;14.00;5.68;;;26.10;52.40;;;;;;4955054;28;20103;-74
2022/05/27 05:39:00;;;;;;;18.35;5.07;;;26.10;52.50;;;;;;4955161;28;20031;-73
2022/05/27 05:41:29;;;;;;;17.27;5.63;;;26.20;52.40;;;;;;4953840;29;20480;-72
2022/05/27 05:43:55;;;;;;;18.75;6.32;;;26.20;52.30;;;;;;4955085;28;20023;-72
2022/05/27 05:46:22;;;;;;;19.63;6.20;;;26.30;51.90;;;;;;4955130;28;20469;-73
2022/05/27 05:48:47;;;;;;;17.60;5.80;;;26.30;52.00;;;;;;4954958;28;20484;-72
2022/05/27 05:51:13;;;;;;;19.70;6.03;;;26.40;51.80;;;;;;4956781;28;20051;-73
2022/05/27 05:53:39;;;;;;;15.57;6.07;;;26.40;51.80;;;;;;4961477;28;20472;-72
2022/05/27 05:56:05;;;;;;;14.50;5.70;;;26.40;51.50;;;;;;4956520;28;20102;-72
2022/05/27 05:58:31;;;;;;;22.38;5.97;;;26.40;51.70;;;;;;4954900;29;20032;-72
2022/05/27 06:00:56;;;;;;;24.23;6.63;;;26.40;51.40;;;;;;4954902;29;20019;-73
2022/05/27 06:03:22;;;;;;;19.52;5.22;;;26.40;51.50;;;;;;4954914;28;20477;-71
2022/05/27 06:05:48;;;;;;;17.65;5.35;;;26.50;51.40;;;;;;4954827;28;20106;-72
2022/05/27 06:08:18;;;;;;;21.73;5.78;;;26.50;51.10;;;;;;4954549;28;20042;-72
2022/05/27 06:10:47;;;;;;;23.20;7.80;;;26.50;51.60;;;;;;4954458;28;20019;-74
2022/05/27 06:13:13;;;;;;;27.55;15.85;;;26.50;51.00;;;;;;4954502;29;20370;-73
2022/05/27 06:15:40;;;;;;;24.10;8.02;;;26.60;51.20;;;;;;4954207;28;20421;-73
2022/05/27 06:18:06;;;;;;;23.67;6.35;;;26.70;51.00;;;;;;4954413;28;20024;-72
2022/05/27 06:20:34;;;;;;;21.08;6.13;;;26.80;50.60;;;;;;4954215;29;20115;-71
2022/05/27 06:23:02;;;;;;;20.27;5.60;;;26.80;50.80;;;;;;4953139;28;20034;-70
2022/05/27 06:25:28;;;;;;;25.58;5.85;;;26.90;50.80;;;;;;4954758;28;20106;-71
2022/05/27 06:34:23;;;;;;;24.95;5.78;;;27.00;50.20;;;;;;4954254;28;20066;-71
2022/05/27 06:36:08;;;;;;;21.23;5.50;;;27.50;48.60;;;;;;4954483;29;20224;-69
2022/05/27 06:38:36;;;;;;;26.02;6.13;;;27.60;49.40;;;;;;4953578;28;20479;-74
2022/05/27 06:41:04;;;;;;;21.15;6.35;;;27.60;49.30;;;;;;4954980;29;20030;-72
2022/05/27 06:43:31;;;;;;;22.75;5.63;;;27.70;48.10;;;;;;4955112;28;20082;-77
2022/05/27 06:45:58;;;;;;;25.48;6.50;;;27.70;48.70;;;;;;4956399;28;20034;-71
2022/05/27 06:48:24;;;;;;;18.85;5.55;;;27.80;48.80;;;;;;4956690;28;20378;-69
2022/05/27 06:50:50;;;;;;;26.25;5.80;;;27.90;48.60;;;;;;4958637;29;20110;-71
2022/05/27 06:53:15;;;;;;;21.02;5.78;;;28.00;48.20;;;;;;4958259;28;20439;-70
2022/05/27 06:55:41;;;;;;;22.23;6.60;;;28.20;47.80;;;;;;4958754;29;20532;-70
2022/05/27 06:58:09;;;;;;;33.47;6.10;;;28.40;47.50;;;;;;4959295;28;20029;-75
2022/05/27 07:00:35;;;;;;;23.65;6.72;;;28.60;46.40;;;;;;4961098;28;20023;-74
2022/05/27 07:03:03;;;;;;;25.77;6.03;;;28.80;46.90;;;;;;4960332;28;20486;-76
2022/05/27 07:05:29;;;;;;;22.33;5.80;;;29.20;46.20;;;;;;4957880;28;20043;-68
2022/05/27 07:07:55;;;;;;;18.85;6.30;;;29.50;46.00;;;;;;4956269;28;20428;-78
2022/05/27 07:10:21;;;;;;;22.55;6.90;;;29.60;45.90;;;;;;4957896;29;20023;-69
2022/05/27 07:12:46;;;;;;;34.08;18.17;;;29.50;45.40;;;;;;4957497;28;20027;-68
2022/05/27 07:15:12;;;;;;;31.42;7.18;;;29.50;45.40;;;;;;4957457;28;20050;-71
2022/05/27 07:17:38;;;;;;;21.27;8.00;;;29.60;45.30;;;;;;4957740;29;20031;-73
2022/05/27 07:20:04;;;;;;;23.95;6.20;;;29.80;44.80;;;;;;4957284;28;20118;-73
2022/05/27 07:22:30;;;;;;;21.25;5.18;;;30.00;44.30;;;;;;4957524;28;20029;-69
2022/05/27 07:24:56;;;;;;;33.83;5.88;;;30.20;43.20;;;;;;4957470;29;20444;-68
2022/05/27 07:27:22;;;;;;;23.50;5.28;;;30.40;43.00;;;;;;4957387;28;20074;-68
2022/05/27 07:29:48;;;;;;;19.60;6.22;;;30.40;43.00;;;;;;4957276;29;20487;-70
2022/05/27 07:32:14;;;;;;;21.08;6.18;;;30.40;42.30;;;;;;4957181;28;20392;-73
2022/05/27 07:34:40;;;;;;;22.92;6.32;;;30.40;42.70;;;;;;4957231;28;20019;-70
2022/05/27 07:37:06;;;;;;;26.80;6.53;;;30.50;42.40;;;;;;4957141;28;20045;-69
2022/05/27 07:39:32;;;;;;;26.40;6.60;;;30.80;42.30;;;;;;4957055;28;20098;-68
2022/05/27 07:41:58;;;;;;;25.20;6.85;;;30.90;41.70;;;;;;4957184;28;20035;-68
2022/05/27 07:44:24;;;;;;;33.40;8.07;;;31.10;41.50;;;;;;4956939;28;20078;-67
2022/05/27 07:46:53;;;;;;;27.23;6.50;;;31.30;41.70;;;;;;4957082;28;20023;-68
2022/05/27 07:49:19;;;;;;;26.95;6.63;;;31.30;41.50;;;;;;4957067;28;20034;-69
2022/05/27 07:51:46;;;;;;;23.05;6.32;;;31.30;41.80;;;;;;4956620;28;20086;-69
2022/05/27 07:54:12;;;;;;;30.55;8.13;;;31.30;41.10;;;;;;4956900;28;20024;-69
2022/05/27 07:56:42;;;;;;;31.20;12.43;;;31.20;41.10;;;;;;4956716;28;20512;-71
2022/05/27 07:59:08;;;;;;;32.83;12.60;;;31.10;41.60;;;;;;4955178;28;20421;-68
2022/05/27 08:01:36;;;;;;;30.65;7.45;;;31.20;41.80;;;;;;4956645;28;20122;-70
2022/05/27 08:04:02;;;;;;;24.92;6.95;;;31.20;41.20;;;;;;4956460;28;20024;-71
2022/05/27 08:06:27;;;;;;;24.52;7.18;;;31.30;40.70;;;;;;4956522;29;20054;-70
2022/05/27 08:08:53;;;;;;;27.60;7.20;;;31.40;41.10;;;;;;4956285;28;20453;-69
2022/05/27 08:11:19;;;;;;;22.40;7.65;;;31.60;40.90;;;;;;4955202;29;20090;-67
2022/05/27 08:13:46;;;;;;;25.20;6.35;;;31.60;40.80;;;;;;4956525;28;20054;-69
2022/05/27 08:16:12;;;;;;;37.60;13.00;;;31.60;40.30;;;;;;4956388;29;20047;-70
2022/05/27 08:18:37;;;;;;;28.73;7.13;;;31.60;39.90;;;;;;4956701;28;20028;-67
2022/05/27 08:21:03;;;;;;;26.27;7.15;;;31.50;39.80;;;;;;4956366;28;20507;-71
2022/05/27 08:23:29;;;;;;;36.10;6.57;;;31.50;39.40;;;;;;4956254;28;20338;-68
2022/05/27 08:25:56;;;;;;;39.60;7.05;;;31.50;39.40;;;;;;4955275;29;20035;-73
2022/05/27 08:28:24;;;;;;;35.22;7.93;;;31.40;39.40;;;;;;4956342;29;20028;-73
2022/05/27 08:30:51;;;;;;;27.65;6.25;;;31.40;39.20;;;;;;4955025;28;20077;-68
2022/05/27 08:33:17;;;;;;;25.83;6.18;;;31.40;39.00;;;;;;4956183;28;20024;-75
2022/05/27 08:38:34;;;;;;;26.90;6.90;;;31.50;39.50;;;;;;4956202;28;20119;-75
2022/05/27 08:41:02;;;;;;;25.83;6.35;;;31.50;39.20;;;;;;4956149;28;20027;-73
2022/05/27 08:43:59;;;;;;;28.17;6.00;;;31.50;39.20;;;;;;4956018;29;20481;-74
2022/05/27 08:46:50;;;;;;;22.85;6.10;;;31.50;39.50;;;;;;4954627;28;20039;-79
2022/05/27 08:49:21;;;;;;;25.23;6.95;;;31.50;39.90;;;;;;4956012;29;20114;-78
2022/05/27 08:52:03;;;;;;;31.10;7.38;;;31.60;39.10;;;;;;4954684;28;20054;-73
2022/05/27 08:54:34;;;;;;;26.05;6.70;;;31.60;39.50;;;;;;4955489;28;20489;-76
2022/05/27 09:00:00;;;;;;;21.42;6.30;;;31.60;39.50;;;;;;4955758;29;20114;-76
2022/05/27 09:02:36;;;;;;;26.13;6.10;;;31.70;39.60;;;;;;4955847;28;20031;-76
2022/05/27 09:05:27;;;;;;;32.30;6.25;;;31.80;38.90;;;;;;4954492;28;20365;-75
2022/05/27 09:08:19;;;;;;;24.58;6.45;;;31.80;39.40;;;;;;4955736;28;20041;-74
2022/05/27 09:11:18;;;;;;;32.72;7.32;;;31.90;38.40;;;;;;4953808;28;20139;-71
2022/05/27 09:14:08;;;;;;;25.77;6.28;;;32.00;39.00;;;;;;4954242;29;20488;-69
2022/05/27 09:17:11;;;;;;;31.98;7.72;;;32.00;38.60;;;;;;4955262;28;20043;-68
2022/05/27 09:19:53;;;;;;;35.22;6.70;;;32.20;38.00;;;;;;4955568;28;20031;-67
2022/05/27 09:22:53;;;;;;;21.08;6.53;;;32.20;37.10;;;;;;4956216;28;20027;-72
2022/05/27 09:25:39;;;;;;;23.98;5.80;;;32.30;37.50;;;;;;4956510;28;20468;-69
2022/05/27 09:28:36;;;;;;;22.40;6.60;;;32.40;37.70;;;;;;4955496;29;20034;-67
2022/05/27 09:31:07;;;;;;;29.40;6.47;;;32.50;37.50;;;;;;4955311;28;20485;-73
2022/05/27 09:33:33;;;;;;;21.95;5.55;;;32.60;36.40;;;;;;4955050;28;20142;-72
2022/05/27 09:36:09;;;;;;;34.40;7.05;;;32.70;36.50;;;;;;4955206;28;20050;-68
2022/05/27 09:38:43;;;;;;;30.05;6.55;;;32.80;37.20;;;;;;4955003;29;20027;-67
2022/05/27 09:41:34;;;;;;;28.48;6.38;;;32.80;35.80;;;;;;4955179;28;20109;-69
2022/05/27 09:44:15;;;;;;;26.65;6.65;;;32.80;35.60;;;;;;4952485;29;20031;-68
2022/05/27 09:46:41;;;;;;;19.35;5.50;;;32.90;36.60;;;;;;4955123;28;20034;-71
2022/05/27 09:49:07;;;;;;;27.02;6.28;;;32.90;35.30;;;;;;4955207;29;20114;-70
2022/05/27 09:51:33;;;;;;;28.23;6.55;;;32.90;35.00;;;;;;4954621;28;20098;-69
2022/05/27 09:54:41;;;;;;;22.98;6.25;;;33.00;34.20;;;;;;4955022;28;20038;-69
2022/05/27 09:57:16;;;;;;;29.55;5.97;;;33.00;34.60;;;;;;4953721;29;20051;-71
2022/05/27 09:59:49;;;;;;;27.88;5.72;;;33.10;33.80;;;;;;4955033;28;20090;-73
2022/05/27 10:02:34;;;;;;;29.85;5.68;;;33.10;33.40;;;;;;4954727;28;20481;-68
2022/05/27 10:05:24;;;;;;;21.92;5.70;;;33.20;33.80;;;;;;4954911;28;20020;-73
2022/05/27 10:07:57;;;;;;;26.70;5.18;;;33.30;32.70;;;;;;4954941;28;20031;-70
2022/05/27 10:10:35;;;;;;;22.75;5.75;;;33.20;33.90;;;;;;4954660;29;20371;-71
2022/05/27 10:13:24;;;;;;;29.85;6.30;;;33.30;34.00;;;;;;4954638;29;20051;-70
2022/05/27 10:15:51;;;;;;;22.13;5.72;;;33.40;34.60;;;;;;4954663;28;20142;-73
2022/05/27 10:18:23;;;;;;;20.85;5.60;;;33.40;34.80;;;;;;4954775;28;20033;-72
2022/05/27 10:21:01;;;;;;;22.40;5.97;;;33.50;35.30;;;;;;4954740;28;20499;-70
2022/05/27 10:23:54;;;;;;;27.90;5.40;;;33.50;35.70;;;;;;4954011;29;20031;-71
2022/05/27 10:26:29;;;;;;;18.90;5.32;;;33.50;35.30;;;;;;4951416;29;20047;-69
2022/05/27 10:29:14;;;;;;;25.90;6.30;;;33.60;35.70;;;;;;4954479;28;20058;-69
2022/05/27 10:31:59;;;;;;;;;;;33.70;35.30;;;;;;4955137;28;20023;-70
2022/05/27 10:34:45;;;;;;;17.30;4.68;;;33.70;35.20;;;;;;4954728;28;19917;-73
2022/05/27 10:37:29;;;;;;;24.13;5.97;;;33.70;34.80;;;;;;4954529;28;20027;-72
2022/05/27 10:39:58;;;;;;;18.08;4.85;;;33.70;34.40;;;;;;4954947;28;20037;-72
2022/05/27 10:42:53;;;;;;;25.17;5.40;;;33.80;34.00;;;;;;4955315;29;20028;-76
2022/05/27 10:45:31;;;;;;;23.17;5.65;;;33.80;33.70;;;;;;4954608;28;20489;-70
2022/05/27 10:48:28;;;;;;;23.27;5.47;;;33.80;33.40;;;;;;4954847;28;20023;-72
2022/05/27 10:50:57;;;;;;;23.30;6.10;;;33.70;33.20;;;;;;4954612;28;20051;-73
2022/05/27 10:53:52;;;;;;;29.00;5.88;;;33.70;33.20;;;;;;4955291;29;20039;-74
2022/05/27 10:56:26;;;;;;;18.73;6.35;;;33.70;33.20;;;;;;4954431;28;20094;-75
2022/05/27 11:02:20;;;;;;;22.90;4.93;;;33.70;33.00;;;;;;4954634;29;20098;-71
2022/05/27 11:04:49;;;;;;;29.05;5.68;;;33.70;32.10;;;;;;4954449;29;20024;-71
2022/05/27 11:07:38;;;;;;;18.45;5.22;;;33.70;32.10;;;;;;4954892;29;20381;-70
2022/05/27 11:10:25;;;;;;;25.35;5.03;;;33.70;32.30;;;;;;4954412;28;20030;-74
2022/05/27 11:16:42;;;;;;;17.73;4.20;;;33.70;32.00;;;;;;4954091;29;20460;-67
2022/05/27 11:19:26;;;;;;;22.45;5.28;;;33.70;32.60;;;;;;4954343;28;20023;-73
2022/05/27 11:22:04;;;;;;;22.10;5.78;;;33.70;32.70;;;;;;4954278;28;20075;-76
2022/05/27 11:25:06;;;;;;;22.30;5.25;;;33.80;32.60;;;;;;4954219;28;20032;-72
2022/05/27 11:27:51;;;;;;;26.42;6.15;;;33.80;32.90;;;;;;4954431;29;20028;-70
2022/05/27 11:30:39;;;;;;;23.58;5.72;;;33.80;32.70;;;;;;4953846;28;20023;-71
2022/05/27 11:33:37;;;;;;;22.42;5.30;;;33.90;32.80;;;;;;4954596;28;20035;-70
2022/05/27 11:36:27;;;;;;;24.83;5.15;;;33.80;33.00;;;;;;4957464;28;20049;-75
2022/05/27 11:38:53;;;;;;;28.02;5.45;;;33.80;33.10;;;;;;4957597;28;20035;-68
2022/05/27 11:41:48;;;;;;;25.85;6.10;;;33.90;33.30;;;;;;4957768;28;20030;-71
2022/05/27 11:44:34;;;;;;;20.80;5.60;;;33.90;33.20;;;;;;4947280;28;20035;-71
2022/05/27 11:47:47;;;;;;;19.40;5.32;;;33.80;33.30;;;;;;4957166;28;20027;-68
2022/05/27 11:50:40;;;;;;;25.75;6.10;;;33.80;33.30;;;;;;4935737;29;20036;-70
2022/05/27 11:53:27;;;;;;;26.63;6.18;;;33.80;33.20;;;;;;4935836;29;20489;-70
2022/05/27 11:56:07;;;;;;;22.58;5.75;;;33.90;33.30;;;;;;4954083;28;20043;-76
2022/05/27 11:58:59;;;;;;;30.45;6.13;;;33.90;33.00;;;;;;4957045;29;20055;-75
2022/05/27 12:01:38;;;;;;;23.05;5.05;;;33.90;33.20;;;;;;4957426;29;20035;-75
2022/05/27 12:04:37;;;;;;;20.23;4.95;;;33.90;33.10;;;;;;4957056;28;20460;-69
2022/05/27 12:07:21;;;;;;;23.60;5.25;;;33.90;33.20;;;;;;4957662;28;20085;-76
2022/05/27 12:09:52;;;;;;;22.23;5.97;;;34.00;33.20;;;;;;4957048;29;20101;-74
2022/05/27 12:13:05;;;;;;;25.92;5.53;;;34.10;33.00;;;;;;4956900;28;20027;-77
2022/05/27 12:15:52;;;;;;;25.88;6.50;;;34.10;32.80;;;;;;4947599;28;20481;-70
2022/05/27 12:18:34;;;;;;;25.52;5.97;;;34.20;33.20;;;;;;4956733;28;20024;-71
2022/05/27 12:21:05;;;;;;;22.73;5.82;;;34.40;33.00;;;;;;4956336;28;20023;-68
2022/05/27 12:23:35;;;;;;;28.40;6.13;;;34.40;32.60;;;;;;4956595;28;20461;-75
2022/05/27 12:26:01;;;;;;;17.08;5.35;;;34.50;32.60;;;;;;4956602;28;20019;-68
2022/05/27 12:28:56;;;;;;;26.70;6.20;;;34.60;33.30;;;;;;4956577;28;20027;-67
2022/05/27 12:31:23;;;;;;;25.55;6.18;;;34.60;32.60;;;;;;4955551;28;20035;-67
2022/05/27 12:33:49;;;;;;;30.20;6.68;;;34.60;33.30;;;;;;4956296;28;20473;-68
2022/05/27 12:36:26;;;;;;;34.38;6.55;;;34.60;34.10;;;;;;4956395;29;20035;-70
2022/05/27 12:38:54;;;;;;;26.23;6.05;;;34.40;33.90;;;;;;4956190;28;20086;-69
2022/05/27 12:41:41;;;;;;;26.85;6.72;;;34.30;34.60;;;;;;4956425;28;20066;-69
2022/05/27 12:44:24;;;;;;;19.75;5.72;;;34.20;34.90;;;;;;4956773;28;20046;-69
2022/05/27 12:46:59;;;;;;;20.90;6.03;;;34.10;35.00;;;;;;4955829;29;20118;-68
2022/05/27 12:49:33;;;;;;;27.88;6.30;;;33.90;36.00;;;;;;4956393;28;20024;-69
2022/05/27 12:52:00;;;;;;;26.88;6.35;;;33.90;35.80;;;;;;4956040;29;20058;-69
2022/05/27 12:54:48;;;;;;;21.13;5.70;;;33.90;35.20;;;;;;4956055;28;20031;-72
2022/05/27 13:03:50;;;;;;;17.08;5.68;;;34.20;35.90;;;;;;4956484;29;20083;-68
2022/05/27 13:06:35;;;;;;;20.25;5.70;;;34.20;35.10;;;;;;4945385;29;20054;-70
2022/05/27 13:09:10;;;;;;;20.20;5.40;;;34.20;35.40;;;;;;4955887;28;20487;-70
2022/05/27 13:11:37;;;;;;;23.02;5.97;;;34.20;35.40;;;;;;4956254;28;20035;-71
2022/05/27 13:14:03;;;;;;;18.75;5.65;;;34.20;35.00;;;;;;4956295;28;20111;-70
2022/05/27 13:17:05;;;;;;;24.50;5.90;;;34.20;35.30;;;;;;4955773;29;20134;-68
2022/05/27 13:19:36;;;;;;;23.30;6.63;;;34.20;35.70;;;;;;4955704;28;20082;-72
2022/05/27 13:22:26;;;;;;;24.90;7.63;;;34.20;35.80;;;;;;4956061;28;20027;-72
2022/05/27 13:24:53;;;;;;;23.50;6.18;;;34.30;35.70;;;;;;4955221;28;20031;-70
2022/05/27 13:27:30;;;;;;;25.88;7.03;;;34.40;35.80;;;;;;4955331;28;20023;-70
2022/05/27 13:30:08;;;;;;;19.08;6.18;;;34.40;36.20;;;;;;4955136;28;20046;-69
2022/05/27 13:32:56;;;;;;;22.63;5.80;;;34.40;36.30;;;;;;4955448;29;20035;-71
2022/05/27 13:35:22;;;;;;;22.20;5.90;;;34.40;36.60;;;;;;4951036;29;20134;-71
2022/05/27 13:37:55;;;;;;;20.70;5.70;;;34.40;36.50;;;;;;4955322;28;20102;-70
2022/05/27 13:40:24;;;;;;;24.13;6.22;;;34.40;36.80;;;;;;4955237;28;20049;-68
2022/05/27 13:42:54;;;;;;;19.95;5.68;;;34.40;36.70;;;;;;4955229;28;20036;-70
2022/05/27 13:45:47;;;;;;;27.33;6.28;;;34.40;37.20;;;;;;4955197;28;20023;-69